MNE101 EDDN-EDDF
Flight info
| Callsign | MNE101 |
|---|---|
| Flight time | 0h 38m |
| Altitude | 24000 |
| Route | SUKAD1C/10 SUKAD DCT PIWAW T159 SPESA SPESA5C |
| Aircraft | C25C/M-SDE2E3FGHRWXY/LB1 |
Departure
| Time | 2026-04-15 12:34 |
|---|---|
| Airport | Nuremberg Airport (EDDN) |
Arrival
| Time | 2026-04-15 13:12 |
|---|---|
| Airport | Frankfurt Main Airport (EDDF) |
| Time | Latitude | Longitude | Altitude | Speed | Heading |
|---|---|---|---|---|---|
| 2026-04-15 12:27 | 49.49554 | 11.08436 | 1027 ft | 0 kts | 188° |
| 2026-04-15 12:30 | 49.49552 | 11.08436 | 1027 ft | 4 kts | 188° |
| 2026-04-15 12:31 | 49.49523 | 11.08355 | 1026 ft | 17 kts | 300° |
| 2026-04-15 12:31 | 49.49546 | 11.08155 | 1023 ft | 27 kts | 277° |
| 2026-04-15 12:31 | 49.49564 | 11.07964 | 1023 ft | 14 kts | 279° |
| 2026-04-15 12:31 | 49.49584 | 11.07801 | 1023 ft | 18 kts | 293° |
| 2026-04-15 12:32 | 49.49683 | 11.07721 | 1025 ft | 17 kts | 293° |
| 2026-04-15 12:32 | 49.49718 | 11.07395 | 1021 ft | 46 kts | 277° |
| 2026-04-15 12:32 | 49.49765 | 11.07083 | 1016 ft | 18 kts | 325° |
| 2026-04-15 12:32 | 49.49843 | 11.07036 | 1014 ft | 0 kts | 339° |
| 2026-04-15 12:33 | 49.49843 | 11.07035 | 1014 ft | 2 kts | 339° |
| 2026-04-15 12:33 | 49.49928 | 11.07023 | 1015 ft | 21 kts | 23° |
| 2026-04-15 12:33 | 49.49941 | 11.07075 | 1016 ft | 4 kts | 97° |
| 2026-04-15 12:33 | 49.49908 | 11.07433 | 1024 ft | 85 kts | 101° |
| 2026-04-15 12:34 | 49.49745 | 11.08840 | 1260 ft | 175 kts | 103° |
| 2026-04-15 12:34 | 49.49421 | 11.11054 | 1679 ft | 248 kts | 101° |
| 2026-04-15 12:34 | 49.49242 | 11.13704 | 2189 ft | 250 kts | 95° |
| 2026-04-15 12:34 | 49.49029 | 11.16413 | 2673 ft | 259 kts | 98° |
| 2026-04-15 12:35 | 49.48764 | 11.19187 | 3166 ft | 265 kts | 99° |
| 2026-04-15 12:35 | 49.48239 | 11.21778 | 3619 ft | 244 kts | 124° |
| 2026-04-15 12:35 | 49.47120 | 11.23643 | 4068 ft | 233 kts | 140° |
| 2026-04-15 12:35 | 49.45676 | 11.24641 | 4519 ft | 227 kts | 165° |
| 2026-04-15 12:36 | 49.44144 | 11.24801 | 4975 ft | 222 kts | 185° |
| 2026-04-15 12:36 | 49.42624 | 11.24587 | 5431 ft | 216 kts | 181° |
| 2026-04-15 12:36 | 49.41135 | 11.24448 | 5886 ft | 213 kts | 184° |
| 2026-04-15 12:36 | 49.39674 | 11.24272 | 6349 ft | 208 kts | 182° |
| 2026-04-15 12:37 | 49.38239 | 11.24100 | 6814 ft | 203 kts | 182° |
| 2026-04-15 12:37 | 49.36900 | 11.23937 | 7122 ft | 193 kts | 182° |
| 2026-04-15 12:37 | 49.35429 | 11.23778 | 7215 ft | 233 kts | 182° |
| 2026-04-15 12:37 | 49.33627 | 11.23560 | 7251 ft | 285 kts | 185° |
| 2026-04-15 12:38 | 49.31797 | 11.22416 | 7383 ft | 280 kts | 220° |
| 2026-04-15 12:38 | 49.30603 | 11.20187 | 7797 ft | 264 kts | 241° |
| 2026-04-15 12:38 | 49.30118 | 11.17455 | 8211 ft | 279 kts | 257° |
| 2026-04-15 12:38 | 49.29600 | 11.14430 | 8651 ft | 308 kts | 253° |
| 2026-04-15 12:39 | 49.29047 | 11.11113 | 9106 ft | 333 kts | 256° |
| 2026-04-15 12:39 | 49.28499 | 11.07675 | 9811 ft | 333 kts | 255° |
| 2026-04-15 12:39 | 49.27919 | 11.04188 | 10588 ft | 342 kts | 256° |
| 2026-04-15 12:39 | 49.27325 | 11.00616 | 11336 ft | 350 kts | 255° |
| 2026-04-15 12:40 | 49.26716 | 10.96975 | 12098 ft | 356 kts | 256° |
| 2026-04-15 12:40 | 49.26190 | 10.93243 | 12873 ft | 360 kts | 264° |
| 2026-04-15 12:40 | 49.26497 | 10.89446 | 13646 ft | 359 kts | 285° |
| 2026-04-15 12:40 | 49.27580 | 10.86034 | 14394 ft | 359 kts | 306° |
| 2026-04-15 12:41 | 49.29268 | 10.83174 | 15113 ft | 363 kts | 312° |
| 2026-04-15 12:41 | 49.30988 | 10.80392 | 15839 ft | 366 kts | 314° |
| 2026-04-15 12:41 | 49.32789 | 10.77624 | 16593 ft | 368 kts | 314° |
| 2026-04-15 12:41 | 49.34568 | 10.74783 | 17367 ft | 369 kts | 313° |
| 2026-04-15 12:42 | 49.36330 | 10.71910 | 18140 ft | 370 kts | 313° |
| 2026-04-15 12:42 | 49.38123 | 10.69044 | 18892 ft | 372 kts | 314° |
| 2026-04-15 12:42 | 49.39914 | 10.66150 | 19599 ft | 378 kts | 313° |
| 2026-04-15 12:42 | 49.41725 | 10.63218 | 20330 ft | 378 kts | 314° |
| 2026-04-15 12:43 | 49.43536 | 10.60270 | 21097 ft | 381 kts | 314° |
| 2026-04-15 12:43 | 49.45641 | 10.57797 | 21815 ft | 382 kts | 333° |
| 2026-04-15 12:43 | 49.48124 | 10.56335 | 22597 ft | 382 kts | 342° |
| 2026-04-15 12:43 | 49.50673 | 10.55143 | 23403 ft | 383 kts | 344° |
| 2026-04-15 12:44 | 49.53204 | 10.54045 | 24108 ft | 384 kts | 340° |
| 2026-04-15 12:44 | 49.55500 | 10.51815 | 24213 ft | 400 kts | 319° |
| 2026-04-15 12:44 | 49.57366 | 10.48527 | 24218 ft | 414 kts | 307° |
| 2026-04-15 12:44 | 49.59025 | 10.44916 | 24227 ft | 410 kts | 306° |
| 2026-04-15 12:45 | 49.60636 | 10.41285 | 24231 ft | 412 kts | 305° |
| 2026-04-15 12:45 | 49.62319 | 10.37658 | 24224 ft | 421 kts | 306° |
| 2026-04-15 12:45 | 49.64032 | 10.34019 | 24230 ft | 421 kts | 306° |
| 2026-04-15 12:45 | 49.65694 | 10.30436 | 24229 ft | 401 kts | 306° |
| 2026-04-15 12:46 | 49.67277 | 10.26969 | 24226 ft | 395 kts | 305° |
| 2026-04-15 12:46 | 49.68911 | 10.23427 | 24226 ft | 413 kts | 306° |
| 2026-04-15 12:46 | 49.70600 | 10.19763 | 24230 ft | 418 kts | 306° |
| 2026-04-15 12:46 | 49.72269 | 10.16141 | 24232 ft | 413 kts | 306° |
| 2026-04-15 12:47 | 49.73931 | 10.12509 | 24230 ft | 416 kts | 305° |
| 2026-04-15 12:47 | 49.75614 | 10.08844 | 24237 ft | 420 kts | 305° |
| 2026-04-15 12:47 | 49.77292 | 10.05173 | 24230 ft | 414 kts | 305° |
| 2026-04-15 12:47 | 49.78939 | 10.01579 | 24229 ft | 408 kts | 305° |
| 2026-04-15 12:48 | 49.80603 | 9.97928 | 24217 ft | 419 kts | 305° |
| 2026-04-15 12:48 | 49.82287 | 9.94240 | 24219 ft | 418 kts | 305° |
| 2026-04-15 12:48 | 49.83956 | 9.90564 | 24219 ft | 416 kts | 304° |
| 2026-04-15 12:48 | 49.85624 | 9.86906 | 24220 ft | 415 kts | 305° |
| 2026-04-15 12:49 | 49.87283 | 9.83245 | 24214 ft | 414 kts | 304° |
| 2026-04-15 12:49 | 49.88906 | 9.79556 | 24211 ft | 413 kts | 301° |
| 2026-04-15 12:49 | 49.90079 | 9.75512 | 24207 ft | 407 kts | 292° |
| 2026-04-15 12:49 | 49.91121 | 9.71505 | 24205 ft | 394 kts | 292° |
| 2026-04-15 12:50 | 49.92117 | 9.67617 | 24175 ft | 383 kts | 292° |
| 2026-04-15 12:50 | 49.93081 | 9.63829 | 23940 ft | 375 kts | 287° |
| 2026-04-15 12:50 | 49.93230 | 9.59730 | 23551 ft | 392 kts | 261° |
| 2026-04-15 12:50 | 49.92351 | 9.55677 | 23163 ft | 401 kts | 247° |
| 2026-04-15 12:51 | 49.91090 | 9.51804 | 22707 ft | 402 kts | 243° |
| 2026-04-15 12:51 | 49.89762 | 9.48044 | 22152 ft | 403 kts | 243° |
| 2026-04-15 12:51 | 49.88536 | 9.44124 | 21581 ft | 405 kts | 248° |
| 2026-04-15 12:51 | 49.87551 | 9.40031 | 21029 ft | 402 kts | 251° |
| 2026-04-15 12:52 | 49.86928 | 9.37341 | 20667 ft | 395 kts | 250° |
| 2026-04-15 12:52 | 49.86465 | 9.33222 | 20103 ft | 388 kts | 272° |
| 2026-04-15 12:52 | 49.86971 | 9.29193 | 19503 ft | 373 kts | 285° |
| 2026-04-15 12:52 | 49.87831 | 9.25416 | 18806 ft | 361 kts | 290° |
| 2026-04-15 12:53 | 49.88723 | 9.21886 | 18090 ft | 352 kts | 289° |
| 2026-04-15 12:53 | 49.89472 | 9.18308 | 17325 ft | 345 kts | 284° |
| 2026-04-15 12:53 | 49.90070 | 9.14742 | 16433 ft | 328 kts | 284° |
| 2026-04-15 12:53 | 49.90655 | 9.11572 | 15545 ft | 287 kts | 285° |
| 2026-04-15 12:54 | 49.91204 | 9.08749 | 14674 ft | 262 kts | 285° |
| 2026-04-15 12:54 | 49.91710 | 9.06131 | 13801 ft | 246 kts | 285° |
| 2026-04-15 12:54 | 49.92178 | 9.03635 | 12856 ft | 237 kts | 284° |
| 2026-04-15 12:54 | 49.92647 | 9.01172 | 11946 ft | 254 kts | 285° |
| 2026-04-15 12:55 | 49.93180 | 8.98373 | 11193 ft | 282 kts | 285° |
| 2026-04-15 12:55 | 49.93763 | 8.95346 | 10639 ft | 296 kts | 285° |
| 2026-04-15 12:55 | 49.94343 | 8.92294 | 10088 ft | 293 kts | 285° |
| 2026-04-15 12:55 | 49.94918 | 8.89284 | 9473 ft | 289 kts | 285° |
| 2026-04-15 12:56 | 49.95482 | 8.86305 | 8861 ft | 285 kts | 284° |
| 2026-04-15 12:56 | 49.96019 | 8.83472 | 8250 ft | 266 kts | 285° |
| 2026-04-15 12:56 | 49.96511 | 8.80865 | 7612 ft | 240 kts | 285° |
| 2026-04-15 12:56 | 49.96995 | 8.78357 | 7016 ft | 248 kts | 285° |
| 2026-04-15 12:57 | 49.97483 | 8.75722 | 6428 ft | 260 kts | 284° |
| 2026-04-15 12:57 | 49.97986 | 8.72993 | 5819 ft | 263 kts | 283° |
| 2026-04-15 12:57 | 49.97960 | 8.70196 | 5201 ft | 260 kts | 251° |
| 2026-04-15 12:57 | 49.97313 | 8.67664 | 5012 ft | 246 kts | 247° |
| 2026-04-15 12:58 | 49.96717 | 8.65247 | 4990 ft | 229 kts | 246° |
| 2026-04-15 12:58 | 49.96155 | 8.63007 | 4988 ft | 220 kts | 248° |
| 2026-04-15 12:58 | 49.95560 | 8.60539 | 4996 ft | 262 kts | 247° |
| 2026-04-15 12:58 | 49.94913 | 8.57854 | 5011 ft | 268 kts | 249° |
| 2026-04-15 12:59 | 49.93606 | 8.52427 | 5014 ft | 273 kts | 248° |
| 2026-04-15 12:59 | 49.92946 | 8.49659 | 5005 ft | 274 kts | 248° |
| 2026-04-15 12:59 | 49.92270 | 8.46887 | 5013 ft | 276 kts | 248° |
| 2026-04-15 13:00 | 49.91597 | 8.44083 | 5008 ft | 278 kts | 248° |
| 2026-04-15 13:00 | 49.90926 | 8.41302 | 5003 ft | 273 kts | 248° |
| 2026-04-15 13:00 | 49.90263 | 8.38551 | 5001 ft | 271 kts | 248° |
| 2026-04-15 13:00 | 49.89601 | 8.35813 | 5007 ft | 271 kts | 248° |
| 2026-04-15 13:01 | 49.88936 | 8.33081 | 5003 ft | 272 kts | 249° |
| 2026-04-15 13:01 | 49.88272 | 8.30330 | 5002 ft | 273 kts | 248° |
| 2026-04-15 13:01 | 49.87603 | 8.27561 | 5004 ft | 274 kts | 249° |
| 2026-04-15 13:01 | 49.86924 | 8.24795 | 5011 ft | 275 kts | 248° |
| 2026-04-15 13:02 | 49.86246 | 8.22021 | 5003 ft | 275 kts | 248° |
| 2026-04-15 13:02 | 49.85572 | 8.19246 | 5005 ft | 275 kts | 249° |
| 2026-04-15 13:02 | 49.84909 | 8.16520 | 5008 ft | 272 kts | 247° |
| 2026-04-15 13:02 | 49.84244 | 8.13825 | 4995 ft | 255 kts | 248° |
| 2026-04-15 13:03 | 49.83654 | 8.11362 | 4996 ft | 241 kts | 247° |
| 2026-04-15 13:03 | 49.83058 | 8.08900 | 4995 ft | 248 kts | 247° |
| 2026-04-15 13:03 | 49.82425 | 8.06385 | 4997 ft | 252 kts | 247° |
| 2026-04-15 13:03 | 49.81818 | 8.03827 | 4994 ft | 253 kts | 251° |
| 2026-04-15 13:04 | 49.81869 | 8.01135 | 4992 ft | 257 kts | 291° |
| 2026-04-15 13:04 | 49.83010 | 7.99065 | 4987 ft | 256 kts | 328° |
| 2026-04-15 13:04 | 49.84686 | 7.98434 | 4997 ft | 253 kts | 5° |
| 2026-04-15 13:04 | 49.86265 | 7.99460 | 4961 ft | 248 kts | 42° |
| 2026-04-15 13:05 | 49.87188 | 8.01637 | 4736 ft | 240 kts | 69° |
| 2026-04-15 13:05 | 49.87858 | 8.04003 | 4544 ft | 241 kts | 65° |
| 2026-04-15 13:05 | 49.88725 | 8.06188 | 4322 ft | 228 kts | 57° |
| 2026-04-15 13:05 | 49.89664 | 8.08199 | 4118 ft | 239 kts | 54° |
| 2026-04-15 13:06 | 49.90667 | 8.10315 | 4067 ft | 246 kts | 56° |
| 2026-04-15 13:06 | 49.91661 | 8.12474 | 4047 ft | 244 kts | 57° |
| 2026-04-15 13:06 | 49.92634 | 8.14620 | 4035 ft | 241 kts | 57° |
| 2026-04-15 13:06 | 49.93602 | 8.16736 | 4021 ft | 240 kts | 57° |
| 2026-04-15 13:07 | 49.94468 | 8.18930 | 4021 ft | 237 kts | 70° |
| 2026-04-15 13:07 | 49.95009 | 8.21348 | 4016 ft | 237 kts | 71° |
| 2026-04-15 13:07 | 49.95599 | 8.23715 | 4013 ft | 232 kts | 70° |
| 2026-04-15 13:07 | 49.96166 | 8.26001 | 4009 ft | 226 kts | 70° |
| 2026-04-15 13:08 | 49.96672 | 8.28141 | 4005 ft | 193 kts | 71° |
| 2026-04-15 13:08 | 49.97130 | 8.30066 | 3884 ft | 192 kts | 70° |
| 2026-04-15 13:08 | 49.97591 | 8.32056 | 3624 ft | 191 kts | 72° |
| 2026-04-15 13:08 | 49.97987 | 8.33822 | 3423 ft | 159 kts | 71° |
| 2026-04-15 13:09 | 49.98377 | 8.35316 | 3137 ft | 142 kts | 67° |
| 2026-04-15 13:09 | 49.98805 | 8.36847 | 2743 ft | 166 kts | 69° |
| 2026-04-15 13:09 | 49.99258 | 8.38584 | 2417 ft | 179 kts | 69° |
| 2026-04-15 13:09 | 49.99693 | 8.40417 | 2107 ft | 182 kts | 70° |
| 2026-04-15 13:10 | 50.00135 | 8.42274 | 1766 ft | 181 kts | 71° |
| 2026-04-15 13:10 | 50.00513 | 8.43913 | 1546 ft | 146 kts | 71° |
| 2026-04-15 13:10 | 50.00830 | 8.45318 | 1284 ft | 131 kts | 70° |
| 2026-04-15 13:10 | 50.01139 | 8.46670 | 988 ft | 131 kts | 69° |
| 2026-04-15 13:11 | 50.01449 | 8.47985 | 893 ft | 129 kts | 68° |
| 2026-04-15 13:11 | 50.01777 | 8.49303 | 862 ft | 129 kts | 68° |
| 2026-04-15 13:11 | 50.02075 | 8.50555 | 780 ft | 120 kts | 68° |
| 2026-04-15 13:11 | 50.02349 | 8.51759 | 634 ft | 116 kts | 67° |
| 2026-04-15 13:12 | 50.02635 | 8.52919 | 465 ft | 112 kts | 65° |
| 2026-04-15 13:12 | 50.02892 | 8.53992 | 330 ft | 99 kts | 66° |
| 2026-04-15 13:12 | 50.03098 | 8.54851 | 335 ft | 66 kts | 70° |
| 2026-04-15 13:12 | 50.03235 | 8.55442 | 339 ft | 43 kts | 71° |
| 2026-04-15 13:13 | 50.03233 | 8.55837 | 342 ft | 20 kts | 100° |
| 2026-04-15 13:13 | 50.03230 | 8.55857 | 347 ft | 0 kts | 101° |
| 2026-04-15 13:13 | 50.03197 | 8.55904 | 339 ft | 14 kts | 162° |
| 2026-04-15 13:13 | 50.03178 | 8.55907 | 339 ft | 9 kts | 187° |
| 2026-04-15 13:14 | 50.03102 | 8.55672 | 348 ft | 32 kts | 250° |
| 2026-04-15 13:14 | 50.03007 | 8.55273 | 345 ft | 35 kts | 250° |
| 2026-04-15 13:14 | 50.02927 | 8.54942 | 335 ft | 28 kts | 249° |
| 2026-04-15 13:14 | 50.02866 | 8.54713 | 331 ft | 29 kts | 252° |
| 2026-04-15 13:15 | 50.02849 | 8.54649 | 332 ft | 0 kts | 239° |
| 2026-04-15 13:15 | 50.02822 | 8.54599 | 331 ft | 14 kts | 231° |
| 2026-04-15 13:15 | 50.02759 | 8.54452 | 330 ft | 23 kts | 241° |
| 2026-04-15 13:15 | 50.02682 | 8.54219 | 329 ft | 25 kts | 244° |
| 2026-04-15 13:16 | 50.02612 | 8.53964 | 326 ft | 34 kts | 248° |
| 2026-04-15 13:16 | 50.02527 | 8.53609 | 323 ft | 34 kts | 249° |
| 2026-04-15 13:16 | 50.02428 | 8.53197 | 329 ft | 41 kts | 250° |
| 2026-04-15 13:16 | 50.02340 | 8.52889 | 358 ft | 24 kts | 226° |
| 2026-04-15 13:17 | 50.02216 | 8.52846 | 356 ft | 12 kts | 133° |
| 2026-04-15 13:17 | 50.02206 | 8.52990 | 350 ft | 5 kts | 151° |
| 2026-04-15 13:17 | 50.02162 | 8.52930 | 350 ft | 10 kts | 166° |
| 2026-04-15 13:17 | 50.02163 | 8.52961 | 347 ft | 0 kts | 355° |